Time;durP1;ratioP1;P1;durP2;ratioP2;P2;SDS_P1;SDS_P2;PMS_P1;PMS_P2;Temp;Humidity;BMP_temperature;BMP_pressure;BME280_temperature;BME280_humidity;BME280_pressure;Samples;Min_cycle;Max_cycle;Signal;HPM_P1;HPM_P2
2023/07/08 18:44:53;;;;;;;7.60;5.85;;;;;;;;;;5093761;27;20449;-72
2023/07/08 18:47:19;;;;;;;8.98;6.47;;;;;;;;;;5052927;28;20060;-73
2023/07/08 18:49:45;;;;;;;7.95;6.00;;;;;;;;;;5064844;28;20044;-72
2023/07/08 18:52:11;;;;;;;10.85;6.10;;;;;;;;;;5064596;28;20742;-74
2023/07/08 18:54:37;;;;;;;10.88;6.32;;;;;;;;;;5066594;28;20044;-73
2023/07/08 18:57:03;;;;;;;15.77;6.97;;;;;;;;;;5061131;28;20047;-74
2023/07/08 18:59:29;;;;;;;8.57;6.20;;;;;;;;;;5075756;28;20540;-73
2023/07/08 19:01:55;;;;;;;8.35;6.00;;;;;;;;;;5060839;28;20107;-73
2023/07/08 19:04:23;;;;;;;9.30;6.60;;;;;;;;;;5074880;28;20048;-73
2023/07/08 19:06:49;;;;;;;9.07;6.05;;;;;;;;;;5045501;28;20044;-73
2023/07/08 19:09:15;;;;;;;9.02;6.05;;;;;;;;;;5058247;28;20523;-71
2023/07/08 19:11:42;;;;;;;9.10;6.28;;;;;;;;;;5059391;28;20087;-72
2023/07/08 19:14:17;;;;;;;6.90;6.15;;;;;;;;;;5072094;28;20557;-72
2023/07/08 19:16:44;;;;;;;7.88;5.85;;;;;;;;;;5071915;28;20487;-72
2023/07/08 19:19:13;;;;;;;7.88;6.00;;;;;;;;;;5058834;28;20746;-72
2023/07/08 19:21:40;;;;;;;9.70;5.90;;;;;;;;;;5074856;28;20545;-71
2023/07/08 19:24:06;;;;;;;10.27;5.90;;;;;;;;;;5075458;28;20052;-71
2023/07/08 19:26:32;;;;;;;8.40;5.78;;;;;;;;;;5084323;28;20036;-72
2023/07/08 19:28:59;;;;;;;10.43;5.88;;;;;;;;;;5056042;28;20154;-72
2023/07/08 19:31:31;;;;;;;8.25;6.20;;;;;;;;;;5074958;28;20131;-73
2023/07/08 19:33:58;;;;;;;7.78;5.90;;;;;;;;;;5070627;28;20056;-72
2023/07/08 19:36:24;;;;;;;9.07;6.15;;;;;;;;;;5075253;28;20396;-73
2023/07/08 19:38:50;;;;;;;9.70;6.53;;;;;;;;;;5081683;28;20048;-71
2023/07/08 19:41:23;;;;;;;11.15;6.75;;;;;;;;;;5057756;28;20488;-72
2023/07/08 19:43:49;;;;;;;8.20;6.68;;;;;;;;;;5077708;28;20055;-74
2023/07/08 19:46:16;;;;;;;10.05;6.53;;;;;;;;;;5055465;28;20127;-71
2023/07/08 19:48:43;;;;;;;8.43;6.32;;;;;;;;;;5069647;28;20522;-74
2023/07/08 19:51:09;;;;;;;8.65;6.28;;;;;;;;;;5076438;28;20123;-72
2023/07/08 19:53:37;;;;;;;7.88;6.40;;;;;;;;;;5080954;28;20488;-74
2023/07/08 19:56:13;;;;;;;8.00;6.63;;;;;;;;;;5043240;28;20048;-72
2023/07/08 19:58:39;;;;;;;9.50;7.40;;;;;;;;;;5068073;28;20044;-72
2023/07/08 20:01:06;;;;;;;10.18;7.35;;;;;;;;;;5063943;28;20044;-73
2023/07/08 20:03:33;;;;;;;7.63;6.85;;;;;;;;;;5060450;28;20044;-73
2023/07/08 20:05:59;;;;;;;12.00;7.20;;;;;;;;;;5065352;28;20123;-72
2023/07/08 20:08:32;;;;;;;9.38;6.88;;;;;;;;;;5069308;28;20072;-72
2023/07/08 20:10:58;;;;;;;8.82;6.82;;;;;;;;;;5063291;28;20052;-73
2023/07/08 20:13:27;;;;;;;8.70;7.30;;;;;;;;;;5062764;28;20064;-73
2023/07/08 20:15:53;;;;;;;11.07;7.25;;;;;;;;;;5064758;28;20037;-72
2023/07/08 20:18:22;;;;;;;9.63;7.32;;;;;;;;;;5035472;28;20442;-73
2023/07/08 20:20:48;;;;;;;11.02;7.80;;;;;;;;;;5068818;28;20464;-72
2023/07/08 20:23:15;;;;;;;10.38;8.27;;;;;;;;;;5068377;28;20083;-73
2023/07/08 20:25:42;;;;;;;8.82;7.80;;;;;;;;;;5070213;28;20468;-72
2023/07/08 20:28:09;;;;;;;13.90;8.55;;;;;;;;;;5038637;28;20106;-71
2023/07/08 20:30:35;;;;;;;12.07;9.10;;;;;;;;;;5066100;28;20040;-71
2023/07/08 20:33:01;;;;;;;12.68;8.63;;;;;;;;;;5046667;28;20127;-71
2023/07/08 20:35:28;;;;;;;10.70;8.63;;;;;;;;;;5050823;28;20504;-71
2023/07/08 20:37:54;;;;;;;9.50;8.52;;;;;;;;;;5048001;28;20044;-71
2023/07/08 20:40:25;;;;;;;11.02;8.75;;;;;;;;;;5074225;28;20045;-71
2023/07/08 20:42:54;;;;;;;10.57;8.15;;;;;;;;;;5067507;28;20052;-71
2023/07/08 20:45:30;;;;;;;10.27;8.70;;;;;;;;;;5064665;28;20041;-72
2023/07/08 20:47:57;;;;;;;10.85;8.93;;;;;;;;;;5061617;28;20051;-72
2023/07/08 20:50:24;;;;;;;10.10;8.70;;;;;;;;;;5067780;28;20044;-72
2023/07/08 20:52:51;;;;;;;8.98;8.07;;;;;;;;;;5073605;28;20080;-71
2023/07/08 20:55:18;;;;;;;9.13;8.05;;;;;;;;;;5051617;28;20048;-72
2023/07/08 20:57:44;;;;;;;9.98;8.88;;;;;;;;;;5048562;28;20049;-72
2023/07/08 21:00:23;;;;;;;9.40;8.43;;;;;;;;;;5069429;28;20047;-72
2023/07/08 21:02:49;;;;;;;10.65;8.50;;;;;;;;;;5063877;28;20055;-72
2023/07/08 21:05:15;;;;;;;9.82;8.60;;;;;;;;;;5063660;28;20080;-71
2023/07/08 21:07:41;;;;;;;10.45;9.25;;;;;;;;;;5064962;28;20584;-72
2023/07/08 21:10:14;;;;;;;18.80;16.83;;;;;;;;;;5063531;28;20049;-72
2023/07/08 21:12:40;;;;;;;12.93;10.07;;;;;;;;;;5049281;28;20040;-72
2023/07/08 21:15:07;;;;;;;10.98;9.68;;;;;;;;;;5049026;28;20044;-72
2023/07/08 21:17:33;;;;;;;14.48;9.20;;;;;;;;;;5069353;28;20040;-73
2023/07/08 21:19:59;;;;;;;12.00;9.38;;;;;;;;;;5068250;28;20048;-73
2023/07/08 21:22:25;;;;;;;12.10;9.32;;;;;;;;;;5058935;28;20044;-73
2023/07/08 21:24:51;;;;;;;12.20;8.75;;;;;;;;;;5054261;28;20063;-74
2023/07/08 21:27:25;;;;;;;12.10;9.85;;;;;;;;;;5071116;28;20475;-73
2023/07/08 21:29:51;;;;;;;9.70;8.70;;;;;;;;;;5045674;28;20053;-74
2023/07/08 21:32:17;;;;;;;11.50;9.25;;;;;;;;;;5037952;28;20049;-73
2023/07/08 21:34:43;;;;;;;10.93;9.10;;;;;;;;;;5059810;28;20037;-73
2023/07/08 21:37:11;;;;;;;11.68;8.65;;;;;;;;;;5060586;28;20048;-71
2023/07/08 21:39:37;;;;;;;10.55;8.57;;;;;;;;;;5067187;28;20045;-72
2023/07/08 21:42:04;;;;;;;10.18;9.10;;;;;;;;;;5049239;28;20049;-74
2023/07/08 21:44:30;;;;;;;11.25;8.90;;;;;;;;;;5061399;28;20387;-73
2023/07/08 21:46:56;;;;;;;10.57;8.77;;;;;;;;;;5065127;28;20056;-72
2023/07/08 21:49:22;;;;;;;9.77;8.68;;;;;;;;;;5058541;28;20043;-72
2023/07/08 21:51:48;;;;;;;12.15;9.35;;;;;;;;;;5063651;28;22763;-71
2023/07/08 21:54:15;;;;;;;11.23;8.88;;;;;;;;;;5062093;28;20040;-72
2023/07/08 21:56:41;;;;;;;10.02;9.02;;;;;;;;;;5066415;28;20056;-73
2023/07/08 21:59:25;;;;;;;11.20;9.38;;;;;;;;;;5066417;28;20044;-73
2023/07/08 22:01:51;;;;;;;10.63;9.50;;;;;;;;;;5046674;28;20048;-72
2023/07/08 22:04:19;;;;;;;10.55;9.45;;;;;;;;;;5046251;28;20063;-71
2023/07/08 22:06:45;;;;;;;9.90;8.57;;;;;;;;;;5047092;28;20053;-72
2023/07/08 22:09:11;;;;;;;9.88;8.88;;;;;;;;;;5049360;28;20118;-71
2023/07/08 22:11:38;;;;;;;14.02;9.80;;;;;;;;;;5052275;28;20040;-72
2023/07/08 22:14:06;;;;;;;12.40;9.88;;;;;;;;;;5048486;28;20052;-73
2023/07/08 22:16:36;;;;;;;12.30;9.90;;;;;;;;;;5055558;28;20480;-72
2023/07/08 22:19:02;;;;;;;10.90;9.80;;;;;;;;;;5069389;28;20467;-72
2023/07/08 22:21:30;;;;;;;13.18;10.45;;;;;;;;;;5063640;28;20139;-71
2023/07/08 22:24:00;;;;;;;13.55;10.13;;;;;;;;;;5052258;28;20044;-72
2023/07/08 22:26:27;;;;;;;10.48;9.38;;;;;;;;;;5051824;28;20097;-72
2023/07/08 22:28:53;;;;;;;11.70;10.07;;;;;;;;;;5048710;28;20045;-73
2023/07/08 22:31:22;;;;;;;12.10;10.02;;;;;;;;;;5038882;28;20496;-72
2023/07/08 22:33:48;;;;;;;11.75;10.65;;;;;;;;;;5069530;28;20871;-72
2023/07/08 22:36:14;;;;;;;11.23;10.02;;;;;;;;;;5060519;28;20041;-72
2023/07/08 22:38:40;;;;;;;12.20;10.80;;;;;;;;;;5035163;28;20045;-71
2023/07/08 22:41:10;;;;;;;12.10;10.77;;;;;;;;;;5024969;28;20036;-71
2023/07/08 22:43:36;;;;;;;15.13;10.43;;;;;;;;;;5021964;28;20048;-71
2023/07/08 22:46:03;;;;;;;11.75;9.85;;;;;;;;;;5068354;28;20064;-71
2023/07/08 22:48:29;;;;;;;17.02;11.18;;;;;;;;;;5053290;28;20045;-72
2023/07/08 22:51:01;;;;;;;11.25;10.05;;;;;;;;;;5064187;28;20054;-72
2023/07/08 22:53:28;;;;;;;13.88;10.63;;;;;;;;;;5053234;28;20033;-71
2023/07/08 22:55:54;;;;;;;13.60;10.85;;;;;;;;;;5047924;28;20048;-71
2023/07/08 22:58:23;;;;;;;13.45;11.27;;;;;;;;;;5069785;28;20079;-72
2023/07/08 23:00:49;;;;;;;12.88;10.23;;;;;;;;;;5057241;28;20063;-71
2023/07/08 23:03:16;;;;;;;14.43;11.00;;;;;;;;;;5067016;28;20052;-71
2023/07/08 23:05:43;;;;;;;12.82;11.20;;;;;;;;;;5068904;28;20108;-71
2023/07/08 23:08:12;;;;;;;13.20;11.60;;;;;;;;;;5070270;28;20530;-71
2023/07/08 23:10:38;;;;;;;13.30;11.30;;;;;;;;;;5026427;28;20542;-72
2023/07/08 23:13:04;;;;;;;18.42;11.20;;;;;;;;;;5065914;28;20388;-72
2023/07/08 23:15:30;;;;;;;13.43;12.00;;;;;;;;;;5048260;28;20577;-72
2023/07/08 23:17:56;;;;;;;16.15;11.93;;;;;;;;;;5064440;28;20040;-71
2023/07/08 23:20:22;;;;;;;14.40;12.18;;;;;;;;;;5062903;28;20056;-72
2023/07/08 23:22:49;;;;;;;14.27;11.65;;;;;;;;;;5037231;28;20084;-71
2023/07/08 23:25:15;;;;;;;13.32;11.82;;;;;;;;;;5059514;28;20484;-72
2023/07/08 23:27:42;;;;;;;12.88;11.48;;;;;;;;;;5035403;28;20048;-72
2023/07/08 23:30:14;;;;;;;12.60;11.30;;;;;;;;;;5038475;28;20057;-72
2023/07/08 23:32:40;;;;;;;;;;;;;;;;;;5033502;28;20128;-73
2023/07/08 23:35:06;;;;;;;15.43;12.38;;;;;;;;;;5048688;28;22333;-72
2023/07/08 23:37:32;;;;;;;14.55;12.63;;;;;;;;;;5067651;28;20206;-72
2023/07/08 23:39:59;;;;;;;16.10;12.13;;;;;;;;;;5068289;28;20041;-72
2023/07/08 23:42:25;;;;;;;15.48;12.60;;;;;;;;;;5044717;28;20052;-72
2023/07/08 23:44:51;;;;;;;15.65;13.00;;;;;;;;;;5045073;28;20093;-72
2023/07/08 23:47:23;;;;;;;13.38;11.95;;;;;;;;;;5060175;28;20373;-72
2023/07/08 23:49:49;;;;;;;14.13;12.63;;;;;;;;;;5062994;28;20113;-71
2023/07/08 23:52:16;;;;;;;13.43;11.88;;;;;;;;;;5042342;28;20086;-72
2023/07/08 23:54:43;;;;;;;15.57;13.00;;;;;;;;;;5062552;28;20041;-72
2023/07/08 23:57:14;;;;;;;14.40;13.00;;;;;;;;;;5063046;28;20041;-72
2023/07/08 23:59:47;;;;;;;14.90;12.88;;;;;;;;;;5063447;28;20043;-72
